sensor_id;sensor_type;location;lat;lon;timestamp;pressure;altitude;pressure_sealevel;temperature;humidity
66385;BME280;53426;55.872;37.462;2023-02-14T00:01:52;98031.13;;;1.34;76.82
66385;BME280;53426;55.872;37.462;2023-02-14T00:04:18;98028.53;;;1.34;76.73
66385;BME280;53426;55.872;37.462;2023-02-14T00:06:46;98029.97;;;1.38;76.45
66385;BME280;53426;55.872;37.462;2023-02-14T00:09:14;98037.81;;;1.38;76.29
66385;BME280;53426;55.872;37.462;2023-02-14T00:11:41;98031.25;;;1.32;76.07
66385;BME280;53426;55.872;37.462;2023-02-14T00:14:07;98035.63;;;1.32;76.39
66385;BME280;53426;55.872;37.462;2023-02-14T00:16:51;98030.41;;;1.32;76.25
66385;BME280;53426;55.872;37.462;2023-02-14T00:19:19;98030.41;;;1.32;76.28
66385;BME280;53426;55.872;37.462;2023-02-14T00:21:47;98031.94;;;1.47;76.10
66385;BME280;53426;55.872;37.462;2023-02-14T00:24:23;98027.34;;;1.50;75.80
66385;BME280;53426;55.872;37.462;2023-02-14T00:26:51;98042.06;;;1.39;75.74
66385;BME280;53426;55.872;37.462;2023-02-14T00:29:20;98041.34;;;1.37;75.77
66385;BME280;53426;55.872;37.462;2023-02-14T00:31:48;98044.19;;;1.34;75.98
66385;BME280;53426;55.872;37.462;2023-02-14T00:34:16;98047.72;;;1.33;75.97
66385;BME280;53426;55.872;37.462;2023-02-14T00:36:42;98054.84;;;1.31;75.98
66385;BME280;53426;55.872;37.462;2023-02-14T00:39:10;98059.50;;;1.38;75.84
66385;BME280;53426;55.872;37.462;2023-02-14T00:41:37;98068.06;;;1.40;75.89
66385;BME280;53426;55.872;37.462;2023-02-14T00:44:05;98062.50;;;1.45;75.83
66385;BME280;53426;55.872;37.462;2023-02-14T00:46:31;98060.75;;;1.45;75.71
66385;BME280;53426;55.872;37.462;2023-02-14T00:48:57;98058.63;;;1.50;75.83
66385;BME280;53426;55.872;37.462;2023-02-14T00:51:24;98060.50;;;1.48;75.71
66385;BME280;53426;55.872;37.462;2023-02-14T00:53:51;98052.91;;;1.45;75.70
66385;BME280;53426;55.872;37.462;2023-02-14T00:56:17;98029.69;;;1.30;75.86
66385;BME280;53426;55.872;37.462;2023-02-14T00:58:43;98050.13;;;1.36;76.10
66385;BME280;53426;55.872;37.462;2023-02-14T01:01:10;98053.56;;;1.36;76.15
66385;BME280;53426;55.872;37.462;2023-02-14T01:03:37;98062.75;;;1.42;76.05
66385;BME280;53426;55.872;37.462;2023-02-14T01:06:03;98055.84;;;1.41;76.26
66385;BME280;53426;55.872;37.462;2023-02-14T01:08:29;98052.06;;;1.45;76.35
66385;BME280;53426;55.872;37.462;2023-02-14T01:10:55;98059.41;;;1.40;76.27
66385;BME280;53426;55.872;37.462;2023-02-14T01:13:22;98060.66;;;1.34;76.91
66385;BME280;53426;55.872;37.462;2023-02-14T01:15:50;98065.38;;;1.29;77.03
66385;BME280;53426;55.872;37.462;2023-02-14T01:18:18;98074.97;;;1.29;77.22
66385;BME280;53426;55.872;37.462;2023-02-14T01:20:46;98076.31;;;1.21;77.56
66385;BME280;53426;55.872;37.462;2023-02-14T01:23:12;98068.72;;;1.18;78.29
66385;BME280;53426;55.872;37.462;2023-02-14T01:25:38;98079.34;;;1.28;78.67
66385;BME280;53426;55.872;37.462;2023-02-14T01:28:05;98081.19;;;1.26;79.42
66385;BME280;53426;55.872;37.462;2023-02-14T01:30:32;98072.34;;;1.16;79.74
66385;BME280;53426;55.872;37.462;2023-02-14T01:32:57;98080.09;;;1.17;79.77
66385;BME280;53426;55.872;37.462;2023-02-14T01:35:24;98077.91;;;1.11;80.26
66385;BME280;53426;55.872;37.462;2023-02-14T01:37:51;98087.28;;;1.01;80.62
66385;BME280;53426;55.872;37.462;2023-02-14T01:40:18;98086.25;;;0.91;81.42
66385;BME280;53426;55.872;37.462;2023-02-14T01:42:45;98100.00;;;0.93;81.82
66385;BME280;53426;55.872;37.462;2023-02-14T01:45:20;98099.28;;;0.91;81.81
66385;BME280;53426;55.872;37.462;2023-02-14T01:47:53;98083.22;;;0.84;82.08
66385;BME280;53426;55.872;37.462;2023-02-14T01:50:47;98095.50;;;0.82;81.87
66385;BME280;53426;55.872;37.462;2023-02-14T01:53:25;98093.03;;;0.81;82.12
66385;BME280;53426;55.872;37.462;2023-02-14T01:56:05;98093.22;;;0.78;82.22
66385;BME280;53426;55.872;37.462;2023-02-14T01:58:33;98112.81;;;0.83;82.12
66385;BME280;53426;55.872;37.462;2023-02-14T02:01:02;98105.00;;;0.83;82.77
66385;BME280;53426;55.872;37.462;2023-02-14T02:03:34;98099.88;;;0.82;82.50
66385;BME280;53426;55.872;37.462;2023-02-14T02:06:10;98100.31;;;0.89;82.55
66385;BME280;53426;55.872;37.462;2023-02-14T02:08:42;98097.59;;;0.90;82.63
66385;BME280;53426;55.872;37.462;2023-02-14T02:11:12;98106.34;;;0.89;82.47
66385;BME280;53426;55.872;37.462;2023-02-14T02:13:38;98103.66;;;0.91;82.60
66385;BME280;53426;55.872;37.462;2023-02-14T02:22:03;98118.47;;;1.03;82.67
66385;BME280;53426;55.872;37.462;2023-02-14T02:24:47;98109.59;;;1.05;82.74
66385;BME280;53426;55.872;37.462;2023-02-14T02:27:51;98106.38;;;1.02;82.72
66385;BME280;53426;55.872;37.462;2023-02-14T02:39:40;98124.28;;;1.06;81.96
66385;BME280;53426;55.872;37.462;2023-02-14T02:47:23;98104.91;;;1.10;81.55
66385;BME280;53426;55.872;37.462;2023-02-14T02:53:23;98107.09;;;1.16;81.49
66385;BME280;53426;55.872;37.462;2023-02-14T02:56:00;98120.34;;;1.13;81.52
66385;BME280;53426;55.872;37.462;2023-02-14T02:59:09;98114.28;;;1.13;81.32
66385;BME280;53426;55.872;37.462;2023-02-14T03:04:32;98115.31;;;1.10;81.00
66385;BME280;53426;55.872;37.462;2023-02-14T03:07:29;98113.34;;;1.14;80.78
66385;BME280;53426;55.872;37.462;2023-02-14T03:10:33;98113.22;;;1.15;80.60
66385;BME280;53426;55.872;37.462;2023-02-14T03:16:09;98115.84;;;1.28;80.58
66385;BME280;53426;55.872;37.462;2023-02-14T03:18:56;98115.09;;;1.26;80.24
66385;BME280;53426;55.872;37.462;2023-02-14T03:30:06;98122.22;;;1.24;80.42
66385;BME280;53426;55.872;37.462;2023-02-14T03:32:42;98121.88;;;1.16;80.56
66385;BME280;53426;55.872;37.462;2023-02-14T03:38:05;98128.75;;;1.04;80.45
66385;BME280;53426;55.872;37.462;2023-02-14T03:40:46;98126.38;;;1.01;80.65
66385;BME280;53426;55.872;37.462;2023-02-14T03:43:28;98126.38;;;1.01;80.43
66385;BME280;53426;55.872;37.462;2023-02-14T03:48:45;98150.34;;;1.06;80.33
66385;BME280;53426;55.872;37.462;2023-02-14T03:51:13;98140.69;;;1.08;80.19
66385;BME280;53426;55.872;37.462;2023-02-14T03:53:43;98128.75;;;1.04;80.07
66385;BME280;53426;55.872;37.462;2023-02-14T03:58:57;98138.69;;;1.24;79.62
66385;BME280;53426;55.872;37.462;2023-02-14T04:01:33;98153.28;;;1.27;79.92
66385;BME280;53426;55.872;37.462;2023-02-14T04:04:12;98146.50;;;1.24;79.80
66385;BME280;53426;55.872;37.462;2023-02-14T04:06:39;98158.28;;;1.17;79.58
66385;BME280;53426;55.872;37.462;2023-02-14T04:09:06;98165.28;;;1.17;79.72
66385;BME280;53426;55.872;37.462;2023-02-14T04:11:33;98166.84;;;1.19;79.68
66385;BME280;53426;55.872;37.462;2023-02-14T04:14:01;98161.81;;;1.04;79.21
66385;BME280;53426;55.872;37.462;2023-02-14T04:16:26;98168.28;;;0.98;79.01
66385;BME280;53426;55.872;37.462;2023-02-14T04:18:52;98171.72;;;0.86;79.46
66385;BME280;53426;55.872;37.462;2023-02-14T04:21:36;98165.31;;;0.77;79.41
66385;BME280;53426;55.872;37.462;2023-02-14T04:24:02;98159.16;;;0.66;79.80
66385;BME280;53426;55.872;37.462;2023-02-14T04:26:28;98175.00;;;0.63;79.61
66385;BME280;53426;55.872;37.462;2023-02-14T04:28:54;98165.28;;;0.52;80.46
66385;BME280;53426;55.872;37.462;2023-02-14T04:31:22;98183.03;;;0.60;80.38
66385;BME280;53426;55.872;37.462;2023-02-14T04:33:52;98181.34;;;0.59;80.33
66385;BME280;53426;55.872;37.462;2023-02-14T04:36:18;98184.66;;;0.61;80.40
66385;BME280;53426;55.872;37.462;2023-02-14T04:38:44;98186.44;;;0.60;80.38
66385;BME280;53426;55.872;37.462;2023-02-14T04:41:10;98199.38;;;0.62;80.05
66385;BME280;53426;55.872;37.462;2023-02-14T04:43:36;98191.75;;;0.59;80.41
66385;BME280;53426;55.872;37.462;2023-02-14T04:46:02;98201.78;;;0.65;79.88
66385;BME280;53426;55.872;37.462;2023-02-14T04:48:28;98200.94;;;0.64;79.88
66385;BME280;53426;55.872;37.462;2023-02-14T04:50:54;98200.66;;;0.69;79.71
66385;BME280;53426;55.872;37.462;2023-02-14T04:53:21;98206.59;;;0.71;79.57
66385;BME280;53426;55.872;37.462;2023-02-14T04:55:50;98203.25;;;0.69;79.55
66385;BME280;53426;55.872;37.462;2023-02-14T04:58:16;98201.38;;;0.71;79.14
66385;BME280;53426;55.872;37.462;2023-02-14T05:00:42;98217.13;;;0.82;79.38
66385;BME280;53426;55.872;37.462;2023-02-14T05:03:08;98207.94;;;0.76;79.50
66385;BME280;53426;55.872;37.462;2023-02-14T05:05:34;98234.25;;;0.86;79.47
66385;BME280;53426;55.872;37.462;2023-02-14T05:08:00;98223.28;;;0.81;79.12
66385;BME280;53426;55.872;37.462;2023-02-14T05:10:26;98232.34;;;0.88;78.67
66385;BME280;53426;55.872;37.462;2023-02-14T05:12:51;98226.63;;;0.83;78.91
66385;BME280;53426;55.872;37.462;2023-02-14T05:15:17;98225.56;;;0.73;79.06
66385;BME280;53426;55.872;37.462;2023-02-14T05:17:43;98244.75;;;0.84;79.04
66385;BME280;53426;55.872;37.462;2023-02-14T05:20:10;98242.91;;;0.87;78.84
66385;BME280;53426;55.872;37.462;2023-02-14T05:22:37;98246.03;;;0.92;79.14
66385;BME280;53426;55.872;37.462;2023-02-14T05:25:03;98245.00;;;0.94;78.62
66385;BME280;53426;55.872;37.462;2023-02-14T05:27:29;98250.03;;;0.97;78.52
66385;BME280;53426;55.872;37.462;2023-02-14T05:29:55;98247.09;;;1.02;78.57
66385;BME280;53426;55.872;37.462;2023-02-14T05:32:21;98254.72;;;1.05;78.26
66385;BME280;53426;55.872;37.462;2023-02-14T05:34:48;98233.31;;;1.00;78.12
66385;BME280;53426;55.872;37.462;2023-02-14T05:37:13;98251.78;;;1.09;78.47
66385;BME280;53426;55.872;37.462;2023-02-14T05:39:39;98261.59;;;1.06;78.27
66385;BME280;53426;55.872;37.462;2023-02-14T05:42:05;98256.19;;;1.09;78.29
66385;BME280;53426;55.872;37.462;2023-02-14T05:44:31;98258.28;;;1.16;78.03
66385;BME280;53426;55.872;37.462;2023-02-14T05:46:56;98258.81;;;1.21;78.03
66385;BME280;53426;55.872;37.462;2023-02-14T05:49:22;98259.47;;;1.25;78.21
66385;BME280;53426;55.872;37.462;2023-02-14T05:51:48;98248.59;;;1.31;77.96
66385;BME280;53426;55.872;37.462;2023-02-14T05:54:14;98249.03;;;1.38;77.43
66385;BME280;53426;55.872;37.462;2023-02-14T05:56:40;98247.34;;;1.37;77.66
66385;BME280;53426;55.872;37.462;2023-02-14T05:59:06;98257.28;;;1.44;77.77
66385;BME280;53426;55.872;37.462;2023-02-14T06:01:34;98256.78;;;1.52;77.56
66385;BME280;53426;55.872;37.462;2023-02-14T06:04:00;98251.75;;;1.49;77.83
66385;BME280;53426;55.872;37.462;2023-02-14T06:06:26;98265.13;;;1.57;77.75
66385;BME280;53426;55.872;37.462;2023-02-14T06:08:52;98256.53;;;1.55;77.72
66385;BME280;53426;55.872;37.462;2023-02-14T06:11:17;98255.81;;;1.65;77.91
66385;BME280;53426;55.872;37.462;2023-02-14T06:13:44;98253.63;;;1.59;78.00
66385;BME280;53426;55.872;37.462;2023-02-14T06:16:18;98252.78;;;1.59;78.21
66385;BME280;53426;55.872;37.462;2023-02-14T06:18:44;98230.78;;;1.38;78.25
66385;BME280;53426;55.872;37.462;2023-02-14T06:25:33;98268.56;;;1.57;78.63
66385;BME280;53426;55.872;37.462;2023-02-14T06:28:02;98261.97;;;1.52;78.79
66385;BME280;53426;55.872;37.462;2023-02-14T06:30:31;98273.47;;;1.62;79.37
66385;BME280;53426;55.872;37.462;2023-02-14T06:32:56;98259.06;;;1.56;79.32
66385;BME280;53426;55.872;37.462;2023-02-14T06:35:22;98272.91;;;1.69;79.29
66385;BME280;53426;55.872;37.462;2023-02-14T06:37:51;98272.13;;;1.69;79.13
66385;BME280;53426;55.872;37.462;2023-02-14T06:40:17;98275.75;;;1.79;78.91
66385;BME280;53426;55.872;37.462;2023-02-14T06:42:55;98271.78;;;1.86;78.56
66385;BME280;53426;55.872;37.462;2023-02-14T06:45:26;98257.28;;;1.69;77.13
66385;BME280;53426;55.872;37.462;2023-02-14T06:47:53;98274.38;;;1.86;77.09
66385;BME280;53426;55.872;37.462;2023-02-14T06:50:19;98266.34;;;1.77;76.64
66385;BME280;53426;55.872;37.462;2023-02-14T06:52:45;98273.03;;;1.81;76.95
66385;BME280;53426;55.872;37.462;2023-02-14T06:55:12;98302.78;;;2.03;77.14
66385;BME280;53426;55.872;37.462;2023-02-14T06:57:38;98286.06;;;1.93;77.30
66385;BME280;53426;55.872;37.462;2023-02-14T07:00:05;98272.00;;;1.71;77.10
66385;BME280;53426;55.872;37.462;2023-02-14T07:02:31;98277.31;;;1.82;77.28
66385;BME280;53426;55.872;37.462;2023-02-14T07:04:57;98295.34;;;1.97;77.40
66385;BME280;53426;55.872;37.462;2023-02-14T07:07:32;98261.13;;;1.77;77.36
66385;BME280;53426;55.872;37.462;2023-02-14T07:09:58;98310.38;;;2.19;77.56
66385;BME280;53426;55.872;37.462;2023-02-14T07:15:21;98297.53;;;2.29;76.70
66385;BME280;53426;55.872;37.462;2023-02-14T07:17:48;98262.03;;;2.14;76.44
66385;BME280;53426;55.872;37.462;2023-02-14T07:20:14;98284.06;;;2.09;77.12
66385;BME280;53426;55.872;37.462;2023-02-14T07:22:39;98301.41;;;2.10;77.06
66385;BME280;53426;55.872;37.462;2023-02-14T07:25:06;98334.63;;;2.08;77.87
66385;BME280;53426;55.872;37.462;2023-02-14T07:27:35;98299.78;;;1.84;78.94
66385;BME280;53426;55.872;37.462;2023-02-14T07:30:02;98327.94;;;1.92;79.42
66385;BME280;53426;55.872;37.462;2023-02-14T07:32:33;98286.41;;;1.63;80.07
66385;BME280;53426;55.872;37.462;2023-02-14T07:35:27;98340.25;;;2.02;80.35
66385;BME280;53426;55.872;37.462;2023-02-14T07:37:54;98330.25;;;1.96;81.16
66385;BME280;53426;55.872;37.462;2023-02-14T07:40:23;98348.00;;;2.17;81.44
66385;BME280;53426;55.872;37.462;2023-02-14T07:42:56;98309.25;;;1.98;81.49
66385;BME280;53426;55.872;37.462;2023-02-14T07:45:24;98320.22;;;2.03;81.09
66385;BME280;53426;55.872;37.462;2023-02-14T07:47:51;98334.00;;;1.92;80.63
66385;BME280;53426;55.872;37.462;2023-02-14T07:50:20;98338.09;;;1.96;81.03
66385;BME280;53426;55.872;37.462;2023-02-14T07:52:46;98365.75;;;1.99;80.40
66385;BME280;53426;55.872;37.462;2023-02-14T07:55:12;98345.69;;;1.99;80.98
66385;BME280;53426;55.872;37.462;2023-02-14T07:58:04;98358.22;;;2.20;80.69
66385;BME280;53426;55.872;37.462;2023-02-14T08:03:28;98351.75;;;2.13;80.44
66385;BME280;53426;55.872;37.462;2023-02-14T08:05:56;98368.75;;;1.93;80.15
66385;BME280;53426;55.872;37.462;2023-02-14T08:08:36;98349.03;;;1.76;80.79
66385;BME280;53426;55.872;37.462;2023-02-14T08:11:12;98327.19;;;1.52;80.88
66385;BME280;53426;55.872;37.462;2023-02-14T08:14:03;98351.91;;;1.46;80.98
66385;BME280;53426;55.872;37.462;2023-02-14T08:16:35;98373.75;;;1.58;81.36
66385;BME280;53426;55.872;37.462;2023-02-14T08:19:09;98375.31;;;1.60;81.10
66385;BME280;53426;55.872;37.462;2023-02-14T08:21:35;98375.75;;;1.67;81.13
66385;BME280;53426;55.872;37.462;2023-02-14T08:24:01;98363.09;;;1.61;80.72
66385;BME280;53426;55.872;37.462;2023-02-14T08:26:27;98371.66;;;1.76;80.66
66385;BME280;53426;55.872;37.462;2023-02-14T08:32:14;98373.56;;;1.74;80.20
66385;BME280;53426;55.872;37.462;2023-02-14T08:37:56;98392.00;;;1.71;80.63
66385;BME280;53426;55.872;37.462;2023-02-14T08:40:22;98422.69;;;1.67;81.25
66385;BME280;53426;55.872;37.462;2023-02-14T08:42:49;98421.50;;;1.85;81.23
66385;BME280;53426;55.872;37.462;2023-02-14T08:45:15;98418.78;;;1.99;80.95
66385;BME280;53426;55.872;37.462;2023-02-14T08:47:41;98395.72;;;1.93;80.82
66385;BME280;53426;55.872;37.462;2023-02-14T08:50:13;98404.81;;;2.00;80.07
66385;BME280;53426;55.872;37.462;2023-02-14T08:52:43;98438.44;;;2.05;79.65
66385;BME280;53426;55.872;37.462;2023-02-14T08:55:16;98420.66;;;1.97;79.63
66385;BME280;53426;55.872;37.462;2023-02-14T08:57:48;98429.34;;;2.10;79.61
66385;BME280;53426;55.872;37.462;2023-02-14T09:00:15;98427.78;;;2.21;79.54
66385;BME280;53426;55.872;37.462;2023-02-14T09:02:41;98445.31;;;2.19;79.40
66385;BME280;53426;55.872;37.462;2023-02-14T09:05:07;98453.16;;;2.31;79.75
66385;BME280;53426;55.872;37.462;2023-02-14T09:07:46;98453.81;;;2.22;79.30
66385;BME280;53426;55.872;37.462;2023-02-14T09:10:39;98460.38;;;2.15;79.32
66385;BME280;53426;55.872;37.462;2023-02-14T09:13:06;98430.97;;;1.86;79.31
66385;BME280;53426;55.872;37.462;2023-02-14T09:15:32;98427.25;;;1.90;78.95
66385;BME280;53426;55.872;37.462;2023-02-14T09:17:58;98445.66;;;2.27;78.90
66385;BME280;53426;55.872;37.462;2023-02-14T09:20:23;98450.69;;;2.55;78.59
66385;BME280;53426;55.872;37.462;2023-02-14T09:22:58;98450.44;;;2.58;77.21
66385;BME280;53426;55.872;37.462;2023-02-14T09:25:24;98458.72;;;2.65;76.41
66385;BME280;53426;55.872;37.462;2023-02-14T09:27:50;98458.72;;;2.65;75.97
66385;BME280;53426;55.872;37.462;2023-02-14T09:30:22;98463.41;;;2.72;75.63
66385;BME280;53426;55.872;37.462;2023-02-14T09:32:50;98462.88;;;2.80;74.88
66385;BME280;53426;55.872;37.462;2023-02-14T09:38:14;98475.22;;;2.78;73.54
66385;BME280;53426;55.872;37.462;2023-02-14T09:40:47;98451.28;;;2.59;73.62
66385;BME280;53426;55.872;37.462;2023-02-14T09:43:35;98472.28;;;2.82;73.60
66385;BME280;53426;55.872;37.462;2023-02-14T09:46:10;98464.16;;;2.62;72.96
66385;BME280;53426;55.872;37.462;2023-02-14T09:48:41;98502.06;;;2.80;72.47
66385;BME280;53426;55.872;37.462;2023-02-14T09:51:20;98500.44;;;2.66;72.70
66385;BME280;53426;55.872;37.462;2023-02-14T09:53:53;98507.63;;;2.50;71.49
66385;BME280;53426;55.872;37.462;2023-02-14T10:05:21;98516.41;;;2.74;70.23
66385;BME280;53426;55.872;37.462;2023-02-14T10:08:15;98531.06;;;2.77;69.47
66385;BME280;53426;55.872;37.462;2023-02-14T10:11:01;98534.25;;;3.06;68.69
66385;BME280;53426;55.872;37.462;2023-02-14T10:13:58;98525.28;;;3.46;67.97
66385;BME280;53426;55.872;37.462;2023-02-14T10:16:33;98516.28;;;3.74;65.81
66385;BME280;53426;55.872;37.462;2023-02-14T10:19:25;98526.59;;;4.12;64.64
66385;BME280;53426;55.872;37.462;2023-02-14T10:22:01;98547.44;;;4.48;63.10
66385;BME280;53426;55.872;37.462;2023-02-14T10:24:36;98553.25;;;4.41;61.95
66385;BME280;53426;55.872;37.462;2023-02-14T10:29:36;98567.09;;;3.95;61.79
66385;BME280;53426;55.872;37.462;2023-02-14T10:32:03;98570.97;;;3.66;61.87
66385;BME280;53426;55.872;37.462;2023-02-14T10:34:55;98555.78;;;3.34;63.65
66385;BME280;53426;55.872;37.462;2023-02-14T10:43:29;98569.94;;;3.19;64.40
66385;BME280;53426;55.872;37.462;2023-02-14T10:51:26;98565.97;;;3.14;64.64
66385;BME280;53426;55.872;37.462;2023-02-14T10:54:09;98592.31;;;3.36;65.21
66385;BME280;53426;55.872;37.462;2023-02-14T11:00:25;98601.50;;;3.42;65.48
66385;BME280;53426;55.872;37.462;2023-02-14T11:03:00;98576.09;;;3.31;65.93
66385;BME280;53426;55.872;37.462;2023-02-14T11:15:52;98585.84;;;3.04;65.58
66385;BME280;53426;55.872;37.462;2023-02-14T11:18:23;98596.09;;;3.07;65.59
66385;BME280;53426;55.872;37.462;2023-02-14T11:21:11;98596.50;;;3.13;65.53
66385;BME280;53426;55.872;37.462;2023-02-14T11:23:45;98602.34;;;3.17;65.41
66385;BME280;53426;55.872;37.462;2023-02-14T11:26:36;98621.59;;;3.28;64.32
66385;BME280;53426;55.872;37.462;2023-02-14T11:29:11;98592.00;;;3.03;64.70
66385;BME280;53426;55.872;37.462;2023-02-14T11:37:27;98593.09;;;3.62;63.12
66385;BME280;53426;55.872;37.462;2023-02-14T11:46:47;98612.41;;;4.91;61.89
66385;BME280;53426;55.872;37.462;2023-02-14T11:49:30;98626.66;;;4.87;58.40
66385;BME280;53426;55.872;37.462;2023-02-14T11:52:10;98632.16;;;4.84;58.28
66385;BME280;53426;55.872;37.462;2023-02-14T12:03:51;98595.84;;;3.48;60.56
66385;BME280;53426;55.872;37.462;2023-02-14T12:10:39;98638.78;;;2.94;62.60
66385;BME280;53426;55.872;37.462;2023-02-14T12:19:38;98662.72;;;2.88;63.65
66385;BME280;53426;55.872;37.462;2023-02-14T12:22:12;98665.72;;;2.95;62.84
66385;BME280;53426;55.872;37.462;2023-02-14T12:28:35;98649.53;;;2.90;62.42
66385;BME280;53426;55.872;37.462;2023-02-14T12:45:44;98732.63;;;2.72;62.28
66385;BME280;53426;55.872;37.462;2023-02-14T13:34:07;98829.78;;;1.95;65.74
66385;BME280;53426;55.872;37.462;2023-02-14T13:40:14;98825.09;;;1.86;65.95
66385;BME280;53426;55.872;37.462;2023-02-14T13:52:08;98866.13;;;1.84;66.77
66385;BME280;53426;55.872;37.462;2023-02-14T13:59:03;98874.97;;;1.82;66.76
66385;BME280;53426;55.872;37.462;2023-02-14T14:05:59;98860.97;;;1.68;66.96
66385;BME280;53426;55.872;37.462;2023-02-14T14:08:35;98884.47;;;1.83;67.16
66385;BME280;53426;55.872;37.462;2023-02-14T14:11:25;98868.31;;;1.62;67.46
66385;BME280;53426;55.872;37.462;2023-02-14T14:16:58;98889.50;;;1.72;67.99
66385;BME280;53426;55.872;37.462;2023-02-14T14:31:28;98921.84;;;1.69;68.44
66385;BME280;53426;55.872;37.462;2023-02-14T14:40:36;98928.75;;;1.54;69.00
66385;BME280;53426;55.872;37.462;2023-02-14T14:46:13;98908.44;;;1.30;69.42
66385;BME280;53426;55.872;37.462;2023-02-14T14:48:44;98932.81;;;1.44;69.59
66385;BME280;53426;55.872;37.462;2023-02-14T14:51:27;98952.16;;;1.56;69.81
66385;BME280;53426;55.872;37.462;2023-02-14T14:53:59;98948.91;;;1.52;69.81
66385;BME280;53426;55.872;37.462;2023-02-14T14:56:34;98952.16;;;1.56;69.71
66385;BME280;53426;55.872;37.462;2023-02-14T15:03:14;98960.00;;;1.40;70.32
66385;BME280;53426;55.872;37.462;2023-02-14T15:05:49;98936.13;;;1.16;70.81
66385;BME280;53426;55.872;37.462;2023-02-14T15:11:25;98985.50;;;1.19;71.73
66385;BME280;53426;55.872;37.462;2023-02-14T15:14:41;98994.25;;;1.18;72.15
66385;BME280;53426;55.872;37.462;2023-02-14T15:24:15;98962.44;;;0.80;72.05
66385;BME280;53426;55.872;37.462;2023-02-14T15:26:45;98993.28;;;0.88;72.36
66385;BME280;53426;55.872;37.462;2023-02-14T15:29:24;98979.72;;;0.66;72.19
66385;BME280;53426;55.872;37.462;2023-02-14T15:38:34;99005.59;;;0.53;70.94
66385;BME280;53426;55.872;37.462;2023-02-14T15:41:01;98960.81;;;0.29;71.11
66385;BME280;53426;55.872;37.462;2023-02-14T15:47:00;99029.44;;;0.61;70.31
66385;BME280;53426;55.872;37.462;2023-02-14T15:49:33;99030.28;;;0.62;70.39
66385;BME280;53426;55.872;37.462;2023-02-14T15:52:06;99033.16;;;0.57;69.90
66385;BME280;53426;55.872;37.462;2023-02-14T15:54:57;99051.75;;;0.67;69.57
66385;BME280;53426;55.872;37.462;2023-02-14T15:57:32;99017.28;;;0.45;70.06
66385;BME280;53426;55.872;37.462;2023-02-14T16:09:41;99040.56;;;0.65;69.51
66385;BME280;53426;55.872;37.462;2023-02-14T16:12:20;99030.28;;;0.62;69.64
66385;BME280;53426;55.872;37.462;2023-02-14T16:17:34;99067.66;;;0.78;70.03
66385;BME280;53426;55.872;37.462;2023-02-14T16:20:21;99086.78;;;0.94;70.11
66385;BME280;53426;55.872;37.462;2023-02-14T16:26:07;99054.28;;;0.68;69.92
66385;BME280;53426;55.872;37.462;2023-02-14T16:28:50;99083.16;;;0.81;70.17
66385;BME280;53426;55.872;37.462;2023-02-14T16:31:18;99082.75;;;0.89;70.19
66385;BME280;53426;55.872;37.462;2023-02-14T16:34:08;99098.97;;;0.94;69.98
66385;BME280;53426;55.872;37.462;2023-02-14T16:36:37;99074.75;;;0.76;69.77
66385;BME280;53426;55.872;37.462;2023-02-14T16:39:14;99105.47;;;0.87;69.91
66385;BME280;53426;55.872;37.462;2023-02-14T16:41:46;99101.28;;;0.82;69.79
66385;BME280;53426;55.872;37.462;2023-02-14T16:44:16;99094.75;;;0.75;70.15
66385;BME280;53426;55.872;37.462;2023-02-14T16:46:49;99089.91;;;0.68;69.68
66385;BME280;53426;55.872;37.462;2023-02-14T16:49:15;99101.09;;;0.70;69.65
66385;BME280;53426;55.872;37.462;2023-02-14T16:51:43;99111.22;;;0.76;69.86
66385;BME280;53426;55.872;37.462;2023-02-14T16:54:19;99095.66;;;0.74;69.78
66385;BME280;53426;55.872;37.462;2023-02-14T16:56:55;99120.31;;;0.84;69.72
66385;BME280;53426;55.872;37.462;2023-02-14T16:59:27;99101.00;;;0.71;69.31
66385;BME280;53426;55.872;37.462;2023-02-14T17:01:58;99148.59;;;0.92;68.97
66385;BME280;53426;55.872;37.462;2023-02-14T17:04:27;99132.88;;;0.94;69.31
66385;BME280;53426;55.872;37.462;2023-02-14T17:06:54;99110.44;;;0.74;68.81
66385;BME280;53426;55.872;37.462;2023-02-14T17:09:29;99112.72;;;0.80;69.10
66385;BME280;53426;55.872;37.462;2023-02-14T17:12:24;99140.78;;;0.92;68.73
66385;BME280;53426;55.872;37.462;2023-02-14T17:14:55;99095.44;;;0.62;68.96
66385;BME280;53426;55.872;37.462;2023-02-14T17:17:22;99129.16;;;0.65;69.18
66385;BME280;53426;55.872;37.462;2023-02-14T17:19:49;99119.19;;;0.56;69.69
66385;BME280;53426;55.872;37.462;2023-02-14T17:22:15;99141.22;;;0.66;69.82
66385;BME280;53426;55.872;37.462;2023-02-14T17:24:41;99166.25;;;0.70;69.63
66385;BME280;53426;55.872;37.462;2023-02-14T17:27:07;99161.94;;;0.69;70.01
66385;BME280;53426;55.872;37.462;2023-02-14T17:29:34;99145.31;;;0.54;70.01
66385;BME280;53426;55.872;37.462;2023-02-14T17:32:00;99161.09;;;0.68;70.48
66385;BME280;53426;55.872;37.462;2023-02-14T17:34:30;99153.50;;;0.64;70.63
66385;BME280;53426;55.872;37.462;2023-02-14T17:36:56;99165.53;;;0.66;71.17
66385;BME280;53426;55.872;37.462;2023-02-14T17:39:22;99168.22;;;0.65;71.69
66385;BME280;53426;55.872;37.462;2023-02-14T17:41:48;99174.59;;;0.59;72.87
66385;BME280;53426;55.872;37.462;2023-02-14T17:44:18;99168.53;;;0.59;72.72
66385;BME280;53426;55.872;37.462;2023-02-14T17:46:47;99153.50;;;0.47;73.64
66385;BME280;53426;55.872;37.462;2023-02-14T17:49:13;99150.09;;;0.27;74.87
66385;BME280;53426;55.872;37.462;2023-02-14T17:51:39;99178.75;;;0.45;75.68
66385;BME280;53426;55.872;37.462;2023-02-14T17:54:05;99189.19;;;0.45;76.08
66385;BME280;53426;55.872;37.462;2023-02-14T17:56:37;99182.75;;;0.34;76.50
66385;BME280;53426;55.872;37.462;2023-02-14T17:59:09;99130.13;;;-0.08;76.07
66385;BME280;53426;55.872;37.462;2023-02-14T18:04:32;99144.53;;;-0.01;75.18
66385;BME280;53426;55.872;37.462;2023-02-14T18:07:02;99178.00;;;0.07;75.08
66385;BME280;53426;55.872;37.462;2023-02-14T18:09:29;99198.31;;;0.17;74.98
66385;BME280;53426;55.872;37.462;2023-02-14T18:11:56;99196.94;;;0.10;74.88